sensor_id;sensor_type;location;lat;lon;timestamp;temperature;humidity
24152;DHT22;12311;50.866;4.332;2023-11-21T00:00:13;10.20;99.90
24152;DHT22;12311;50.866;4.332;2023-11-21T00:02:40;10.20;99.90
24152;DHT22;12311;50.866;4.332;2023-11-21T00:05:10;10.10;99.90
24152;DHT22;12311;50.866;4.332;2023-11-21T00:07:37;10.20;99.90
24152;DHT22;12311;50.866;4.332;2023-11-21T00:10:03;10.00;99.90
24152;DHT22;12311;50.866;4.332;2023-11-21T00:12:33;9.90;99.90
24152;DHT22;12311;50.866;4.332;2023-11-21T00:14:59;9.90;99.90
24152;DHT22;12311;50.866;4.332;2023-11-21T00:17:25;9.80;99.90
24152;DHT22;12311;50.866;4.332;2023-11-21T00:19:51;9.80;99.90
24152;DHT22;12311;50.866;4.332;2023-11-21T00:22:20;9.80;99.90
24152;DHT22;12311;50.866;4.332;2023-11-21T00:24:46;9.80;99.90
24152;DHT22;12311;50.866;4.332;2023-11-21T00:27:13;9.70;99.90
24152;DHT22;12311;50.866;4.332;2023-11-21T00:29:40;9.80;99.90
24152;DHT22;12311;50.866;4.332;2023-11-21T00:32:07;9.80;99.90
24152;DHT22;12311;50.866;4.332;2023-11-21T00:34:33;9.80;99.90
24152;DHT22;12311;50.866;4.332;2023-11-21T00:37:00;9.70;99.90
24152;DHT22;12311;50.866;4.332;2023-11-21T00:39:25;9.70;99.90
24152;DHT22;12311;50.866;4.332;2023-11-21T00:41:52;9.70;99.90
24152;DHT22;12311;50.866;4.332;2023-11-21T00:44:18;9.60;99.90
24152;DHT22;12311;50.866;4.332;2023-11-21T00:46:44;9.60;99.90
24152;DHT22;12311;50.866;4.332;2023-11-21T00:49:09;9.60;99.90
24152;DHT22;12311;50.866;4.332;2023-11-21T00:51:35;9.60;99.90
24152;DHT22;12311;50.866;4.332;2023-11-21T00:54:01;9.60;99.90
24152;DHT22;12311;50.866;4.332;2023-11-21T00:56:27;9.60;99.90
24152;DHT22;12311;50.866;4.332;2023-11-21T00:58:53;9.60;99.90
24152;DHT22;12311;50.866;4.332;2023-11-21T01:01:20;9.70;99.90
24152;DHT22;12311;50.866;4.332;2023-11-21T01:03:46;9.60;99.90
24152;DHT22;12311;50.866;4.332;2023-11-21T01:06:12;9.60;99.90
24152;DHT22;12311;50.866;4.332;2023-11-21T01:08:38;9.60;99.90
24152;DHT22;12311;50.866;4.332;2023-11-21T01:11:04;9.60;99.90
24152;DHT22;12311;50.866;4.332;2023-11-21T01:13:30;9.60;99.90
24152;DHT22;12311;50.866;4.332;2023-11-21T01:15:56;9.70;99.90
24152;DHT22;12311;50.866;4.332;2023-11-21T01:18:22;9.70;99.90
24152;DHT22;12311;50.866;4.332;2023-11-21T01:20:47;9.70;99.90
24152;DHT22;12311;50.866;4.332;2023-11-21T01:23:13;9.70;99.90
24152;DHT22;12311;50.866;4.332;2023-11-21T01:25:39;9.80;99.90
24152;DHT22;12311;50.866;4.332;2023-11-21T01:28:05;9.80;99.90
24152;DHT22;12311;50.866;4.332;2023-11-21T01:30:32;9.90;99.90
24152;DHT22;12311;50.866;4.332;2023-11-21T01:32:58;9.90;99.90
24152;DHT22;12311;50.866;4.332;2023-11-21T01:35:24;9.80;99.90
24152;DHT22;12311;50.866;4.332;2023-11-21T01:37:50;9.90;99.90
24152;DHT22;12311;50.866;4.332;2023-11-21T01:40:16;9.90;99.90
24152;DHT22;12311;50.866;4.332;2023-11-21T01:42:42;10.00;99.90
24152;DHT22;12311;50.866;4.332;2023-11-21T01:45:09;10.00;99.90
24152;DHT22;12311;50.866;4.332;2023-11-21T01:47:36;10.00;99.90
24152;DHT22;12311;50.866;4.332;2023-11-21T01:50:03;10.00;99.90
24152;DHT22;12311;50.866;4.332;2023-11-21T01:52:34;10.00;99.90
24152;DHT22;12311;50.866;4.332;2023-11-21T01:55:00;10.00;99.90
24152;DHT22;12311;50.866;4.332;2023-11-21T01:57:26;10.00;99.90
24152;DHT22;12311;50.866;4.332;2023-11-21T01:59:54;10.00;99.90
24152;DHT22;12311;50.866;4.332;2023-11-21T02:02:20;10.10;99.90
24152;DHT22;12311;50.866;4.332;2023-11-21T02:04:45;10.10;99.90
24152;DHT22;12311;50.866;4.332;2023-11-21T02:07:11;10.20;99.90
24152;DHT22;12311;50.866;4.332;2023-11-21T02:09:37;10.20;99.90
24152;DHT22;12311;50.866;4.332;2023-11-21T02:12:08;10.10;99.90
24152;DHT22;12311;50.866;4.332;2023-11-21T02:14:35;10.00;99.90
24152;DHT22;12311;50.866;4.332;2023-11-21T02:17:02;10.10;99.90
24152;DHT22;12311;50.866;4.332;2023-11-21T02:19:28;10.00;99.90
24152;DHT22;12311;50.866;4.332;2023-11-21T02:21:57;10.10;99.90
24152;DHT22;12311;50.866;4.332;2023-11-21T02:24:28;10.10;99.90
24152;DHT22;12311;50.866;4.332;2023-11-21T02:26:54;10.00;99.90
24152;DHT22;12311;50.866;4.332;2023-11-21T02:29:21;10.00;99.90
24152;DHT22;12311;50.866;4.332;2023-11-21T02:31:54;10.00;99.90
24152;DHT22;12311;50.866;4.332;2023-11-21T02:34:21;9.90;99.90
24152;DHT22;12311;50.866;4.332;2023-11-21T02:36:47;9.90;99.90
24152;DHT22;12311;50.866;4.332;2023-11-21T02:39:15;10.00;99.90
24152;DHT22;12311;50.866;4.332;2023-11-21T02:41:42;10.00;99.90
24152;DHT22;12311;50.866;4.332;2023-11-21T02:44:08;10.00;99.90
24152;DHT22;12311;50.866;4.332;2023-11-21T02:46:35;9.90;99.90
24152;DHT22;12311;50.866;4.332;2023-11-21T02:49:04;9.90;99.90
24152;DHT22;12311;50.866;4.332;2023-11-21T02:51:36;9.90;99.90
24152;DHT22;12311;50.866;4.332;2023-11-21T02:54:01;9.90;99.90
24152;DHT22;12311;50.866;4.332;2023-11-21T02:56:28;9.90;99.90
24152;DHT22;12311;50.866;4.332;2023-11-21T02:58:58;9.90;99.90
24152;DHT22;12311;50.866;4.332;2023-11-21T03:01:25;10.00;99.90
24152;DHT22;12311;50.866;4.332;2023-11-21T03:03:51;10.00;99.90
24152;DHT22;12311;50.866;4.332;2023-11-21T03:06:20;10.00;99.90
24152;DHT22;12311;50.866;4.332;2023-11-21T03:08:46;10.00;99.90
24152;DHT22;12311;50.866;4.332;2023-11-21T03:11:12;10.10;99.90
24152;DHT22;12311;50.866;4.332;2023-11-21T03:13:41;10.00;99.90
24152;DHT22;12311;50.866;4.332;2023-11-21T03:16:11;10.00;99.90
24152;DHT22;12311;50.866;4.332;2023-11-21T03:18:37;10.10;99.90
24152;DHT22;12311;50.866;4.332;2023-11-21T03:21:07;10.00;99.90
24152;DHT22;12311;50.866;4.332;2023-11-21T03:23:34;9.90;99.90
24152;DHT22;12311;50.866;4.332;2023-11-21T03:26:01;9.80;99.90
24152;DHT22;12311;50.866;4.332;2023-11-21T03:28:27;9.90;99.90
24152;DHT22;12311;50.866;4.332;2023-11-21T03:30:53;9.90;99.90
24152;DHT22;12311;50.866;4.332;2023-11-21T03:33:19;10.10;99.90
24152;DHT22;12311;50.866;4.332;2023-11-21T03:35:44;10.00;99.90
24152;DHT22;12311;50.866;4.332;2023-11-21T03:38:10;10.00;99.90
24152;DHT22;12311;50.866;4.332;2023-11-21T03:40:36;10.10;99.90
24152;DHT22;12311;50.866;4.332;2023-11-21T03:43:02;10.20;99.90
24152;DHT22;12311;50.866;4.332;2023-11-21T03:45:27;10.20;99.90
24152;DHT22;12311;50.866;4.332;2023-11-21T03:47:53;10.30;99.90
24152;DHT22;12311;50.866;4.332;2023-11-21T03:50:18;10.10;99.90
24152;DHT22;12311;50.866;4.332;2023-11-21T03:52:44;10.10;99.90
24152;DHT22;12311;50.866;4.332;2023-11-21T03:55:10;10.10;99.90
24152;DHT22;12311;50.866;4.332;2023-11-21T03:57:36;10.10;99.90
24152;DHT22;12311;50.866;4.332;2023-11-21T04:00:02;10.20;99.90
24152;DHT22;12311;50.866;4.332;2023-11-21T04:02:29;10.10;99.90
24152;DHT22;12311;50.866;4.332;2023-11-21T04:04:57;10.30;99.90
24152;DHT22;12311;50.866;4.332;2023-11-21T04:07:22;10.20;99.90
24152;DHT22;12311;50.866;4.332;2023-11-21T04:09:48;10.20;99.90
24152;DHT22;12311;50.866;4.332;2023-11-21T04:12:14;10.10;99.90
24152;DHT22;12311;50.866;4.332;2023-11-21T04:14:39;10.10;99.90
24152;DHT22;12311;50.866;4.332;2023-11-21T04:17:05;10.10;99.90
24152;DHT22;12311;50.866;4.332;2023-11-21T04:19:31;10.10;99.90
24152;DHT22;12311;50.866;4.332;2023-11-21T04:21:56;10.00;99.90
24152;DHT22;12311;50.866;4.332;2023-11-21T04:24:22;10.00;99.90
24152;DHT22;12311;50.866;4.332;2023-11-21T04:26:48;9.90;99.90
24152;DHT22;12311;50.866;4.332;2023-11-21T04:29:13;9.90;99.90
24152;DHT22;12311;50.866;4.332;2023-11-21T04:31:39;10.00;99.90
24152;DHT22;12311;50.866;4.332;2023-11-21T04:34:04;10.00;99.90
24152;DHT22;12311;50.866;4.332;2023-11-21T04:36:30;9.90;99.90
24152;DHT22;12311;50.866;4.332;2023-11-21T04:38:56;9.90;99.90
24152;DHT22;12311;50.866;4.332;2023-11-21T04:41:22;9.90;99.90
24152;DHT22;12311;50.866;4.332;2023-11-21T04:43:48;9.90;99.90
24152;DHT22;12311;50.866;4.332;2023-11-21T04:46:14;9.90;99.90
24152;DHT22;12311;50.866;4.332;2023-11-21T04:48:40;10.00;99.90
24152;DHT22;12311;50.866;4.332;2023-11-21T04:51:06;10.10;99.90
24152;DHT22;12311;50.866;4.332;2023-11-21T04:53:32;10.00;99.90
24152;DHT22;12311;50.866;4.332;2023-11-21T04:55:57;10.00;99.90
24152;DHT22;12311;50.866;4.332;2023-11-21T04:58:24;10.00;99.90
24152;DHT22;12311;50.866;4.332;2023-11-21T05:00:49;10.10;99.90
24152;DHT22;12311;50.866;4.332;2023-11-21T05:03:15;10.00;99.90
24152;DHT22;12311;50.866;4.332;2023-11-21T05:05:41;10.00;99.90
24152;DHT22;12311;50.866;4.332;2023-11-21T05:08:06;10.00;99.90
24152;DHT22;12311;50.866;4.332;2023-11-21T05:10:32;10.20;99.90
24152;DHT22;12311;50.866;4.332;2023-11-21T05:12:58;10.20;99.90
24152;DHT22;12311;50.866;4.332;2023-11-21T05:15:24;10.30;99.90
24152;DHT22;12311;50.866;4.332;2023-11-21T05:17:50;10.20;99.90
24152;DHT22;12311;50.866;4.332;2023-11-21T05:20:17;10.10;99.90
24152;DHT22;12311;50.866;4.332;2023-11-21T05:22:46;10.20;99.90
24152;DHT22;12311;50.866;4.332;2023-11-21T05:25:13;10.20;99.90
24152;DHT22;12311;50.866;4.332;2023-11-21T05:27:39;10.20;99.90
24152;DHT22;12311;50.866;4.332;2023-11-21T05:30:05;10.20;99.90
24152;DHT22;12311;50.866;4.332;2023-11-21T05:32:34;10.10;99.90
24152;DHT22;12311;50.866;4.332;2023-11-21T05:35:00;10.00;99.90
24152;DHT22;12311;50.866;4.332;2023-11-21T05:37:26;10.00;99.90
24152;DHT22;12311;50.866;4.332;2023-11-21T05:39:55;9.90;99.90
24152;DHT22;12311;50.866;4.332;2023-11-21T05:42:30;9.90;99.90
24152;DHT22;12311;50.866;4.332;2023-11-21T05:44:56;10.00;99.90
24152;DHT22;12311;50.866;4.332;2023-11-21T05:47:24;10.00;99.90
24152;DHT22;12311;50.866;4.332;2023-11-21T05:49:51;10.20;99.90
24152;DHT22;12311;50.866;4.332;2023-11-21T05:52:17;10.10;99.90
24152;DHT22;12311;50.866;4.332;2023-11-21T05:54:43;10.20;99.90
24152;DHT22;12311;50.866;4.332;2023-11-21T05:57:09;10.20;99.90
24152;DHT22;12311;50.866;4.332;2023-11-21T05:59:35;10.20;99.90
24152;DHT22;12311;50.866;4.332;2023-11-21T06:02:00;10.20;99.90
24152;DHT22;12311;50.866;4.332;2023-11-21T06:04:27;10.30;99.90
24152;DHT22;12311;50.866;4.332;2023-11-21T06:06:53;10.50;99.90
24152;DHT22;12311;50.866;4.332;2023-11-21T06:09:19;10.40;99.90
24152;DHT22;12311;50.866;4.332;2023-11-21T06:11:45;10.50;99.90
24152;DHT22;12311;50.866;4.332;2023-11-21T06:14:10;10.40;99.90
24152;DHT22;12311;50.866;4.332;2023-11-21T06:16:36;10.60;99.90
24152;DHT22;12311;50.866;4.332;2023-11-21T06:19:02;10.60;99.90
24152;DHT22;12311;50.866;4.332;2023-11-21T06:21:27;10.60;99.90
24152;DHT22;12311;50.866;4.332;2023-11-21T06:23:54;10.50;99.90
24152;DHT22;12311;50.866;4.332;2023-11-21T06:26:22;10.50;99.90
24152;DHT22;12311;50.866;4.332;2023-11-21T06:28:48;10.40;99.90
24152;DHT22;12311;50.866;4.332;2023-11-21T06:31:16;10.40;99.90
24152;DHT22;12311;50.866;4.332;2023-11-21T06:33:43;10.40;99.90
24152;DHT22;12311;50.866;4.332;2023-11-21T06:36:09;10.40;99.90
24152;DHT22;12311;50.866;4.332;2023-11-21T06:38:37;10.50;99.90
24152;DHT22;12311;50.866;4.332;2023-11-21T06:41:03;10.40;99.90
24152;DHT22;12311;50.866;4.332;2023-11-21T06:43:29;10.40;99.90
24152;DHT22;12311;50.866;4.332;2023-11-21T06:45:57;10.30;99.90
24152;DHT22;12311;50.866;4.332;2023-11-21T06:48:22;10.30;99.90
24152;DHT22;12311;50.866;4.332;2023-11-21T06:50:48;10.30;99.90
24152;DHT22;12311;50.866;4.332;2023-11-21T06:53:14;10.40;99.90
24152;DHT22;12311;50.866;4.332;2023-11-21T06:55:40;10.40;99.90
24152;DHT22;12311;50.866;4.332;2023-11-21T06:58:06;10.40;99.90
24152;DHT22;12311;50.866;4.332;2023-11-21T07:00:31;10.40;99.90
24152;DHT22;12311;50.866;4.332;2023-11-21T07:02:57;10.50;99.90
24152;DHT22;12311;50.866;4.332;2023-11-21T07:05:23;10.40;99.90
24152;DHT22;12311;50.866;4.332;2023-11-21T07:07:50;10.40;99.90
24152;DHT22;12311;50.866;4.332;2023-11-21T07:10:16;10.40;99.90
24152;DHT22;12311;50.866;4.332;2023-11-21T07:12:42;10.50;99.90
24152;DHT22;12311;50.866;4.332;2023-11-21T07:15:08;10.50;99.90
24152;DHT22;12311;50.866;4.332;2023-11-21T07:17:37;10.60;99.90
24152;DHT22;12311;50.866;4.332;2023-11-21T07:20:04;10.60;99.90
24152;DHT22;12311;50.866;4.332;2023-11-21T07:22:30;10.50;99.90
24152;DHT22;12311;50.866;4.332;2023-11-21T07:24:55;10.40;99.90
24152;DHT22;12311;50.866;4.332;2023-11-21T07:27:24;10.50;99.90
24152;DHT22;12311;50.866;4.332;2023-11-21T07:29:49;10.60;99.90
24152;DHT22;12311;50.866;4.332;2023-11-21T07:32:15;10.50;99.90
24152;DHT22;12311;50.866;4.332;2023-11-21T07:34:41;10.50;99.90
24152;DHT22;12311;50.866;4.332;2023-11-21T07:37:08;10.60;99.90
24152;DHT22;12311;50.866;4.332;2023-11-21T07:39:35;10.60;99.90
24152;DHT22;12311;50.866;4.332;2023-11-21T07:42:02;10.70;99.90
24152;DHT22;12311;50.866;4.332;2023-11-21T07:44:29;10.70;99.90
24152;DHT22;12311;50.866;4.332;2023-11-21T07:46:55;10.80;99.90
24152;DHT22;12311;50.866;4.332;2023-11-21T07:49:25;10.80;99.90
24152;DHT22;12311;50.866;4.332;2023-11-21T07:51:52;10.90;99.90
24152;DHT22;12311;50.866;4.332;2023-11-21T07:54:18;10.80;99.90
24152;DHT22;12311;50.866;4.332;2023-11-21T07:56:43;10.80;99.90
24152;DHT22;12311;50.866;4.332;2023-11-21T07:59:10;10.80;99.90
24152;DHT22;12311;50.866;4.332;2023-11-21T08:01:36;10.90;99.90
24152;DHT22;12311;50.866;4.332;2023-11-21T08:04:01;10.90;99.90
24152;DHT22;12311;50.866;4.332;2023-11-21T08:06:32;10.90;99.90
24152;DHT22;12311;50.866;4.332;2023-11-21T08:08:58;11.00;99.90
24152;DHT22;12311;50.866;4.332;2023-11-21T08:11:24;11.00;99.90
24152;DHT22;12311;50.866;4.332;2023-11-21T08:13:50;10.90;99.90
24152;DHT22;12311;50.866;4.332;2023-11-21T08:16:15;10.90;99.90
24152;DHT22;12311;50.866;4.332;2023-11-21T08:18:42;10.80;99.90
24152;DHT22;12311;50.866;4.332;2023-11-21T08:21:08;10.90;99.90
24152;DHT22;12311;50.866;4.332;2023-11-21T08:23:34;10.90;99.90
24152;DHT22;12311;50.866;4.332;2023-11-21T08:25:59;11.00;99.90
24152;DHT22;12311;50.866;4.332;2023-11-21T08:28:25;11.00;99.90
24152;DHT22;12311;50.866;4.332;2023-11-21T08:30:54;11.10;99.90
24152;DHT22;12311;50.866;4.332;2023-11-21T08:33:20;11.10;99.90
24152;DHT22;12311;50.866;4.332;2023-11-21T08:35:45;11.20;99.90
24152;DHT22;12311;50.866;4.332;2023-11-21T08:38:12;11.10;99.90
24152;DHT22;12311;50.866;4.332;2023-11-21T08:40:38;11.10;99.90
24152;DHT22;12311;50.866;4.332;2023-11-21T08:43:04;11.10;99.90
24152;DHT22;12311;50.866;4.332;2023-11-21T08:45:30;11.20;99.90
24152;DHT22;12311;50.866;4.332;2023-11-21T08:47:56;11.20;99.90
24152;DHT22;12311;50.866;4.332;2023-11-21T08:50:22;11.30;99.90
24152;DHT22;12311;50.866;4.332;2023-11-21T08:52:48;11.50;99.90
24152;DHT22;12311;50.866;4.332;2023-11-21T08:55:14;11.40;99.90
24152;DHT22;12311;50.866;4.332;2023-11-21T08:57:40;11.30;99.90
24152;DHT22;12311;50.866;4.332;2023-11-21T09:00:10;11.30;99.90
24152;DHT22;12311;50.866;4.332;2023-11-21T09:02:42;11.20;99.90
24152;DHT22;12311;50.866;4.332;2023-11-21T09:05:12;11.20;99.90
24152;DHT22;12311;50.866;4.332;2023-11-21T09:07:39;11.40;99.90
24152;DHT22;12311;50.866;4.332;2023-11-21T09:10:08;11.40;99.90
24152;DHT22;12311;50.866;4.332;2023-11-21T09:12:37;11.30;99.90
24152;DHT22;12311;50.866;4.332;2023-11-21T09:15:05;11.40;99.90
24152;DHT22;12311;50.866;4.332;2023-11-21T09:17:35;11.50;99.90
24152;DHT22;12311;50.866;4.332;2023-11-21T09:20:01;11.50;99.90
24152;DHT22;12311;50.866;4.332;2023-11-21T09:22:29;11.60;99.90
24152;DHT22;12311;50.866;4.332;2023-11-21T09:24:55;11.60;99.90
24152;DHT22;12311;50.866;4.332;2023-11-21T09:27:21;11.70;99.90
24152;DHT22;12311;50.866;4.332;2023-11-21T09:29:47;11.70;99.90
24152;DHT22;12311;50.866;4.332;2023-11-21T09:32:14;11.60;99.90
24152;DHT22;12311;50.866;4.332;2023-11-21T09:34:44;11.60;99.90
24152;DHT22;12311;50.866;4.332;2023-11-21T09:37:09;11.30;99.90
24152;DHT22;12311;50.866;4.332;2023-11-21T09:39:35;11.40;99.90
24152;DHT22;12311;50.866;4.332;2023-11-21T09:42:13;11.40;99.90
24152;DHT22;12311;50.866;4.332;2023-11-21T09:44:51;11.50;99.90
24152;DHT22;12311;50.866;4.332;2023-11-21T09:47:21;11.70;99.90
24152;DHT22;12311;50.866;4.332;2023-11-21T09:49:49;11.90;99.90
24152;DHT22;12311;50.866;4.332;2023-11-21T09:52:45;12.00;99.90
24152;DHT22;12311;50.866;4.332;2023-11-21T09:55:16;12.10;99.90
24152;DHT22;12311;50.866;4.332;2023-11-21T09:57:47;12.10;99.90
24152;DHT22;12311;50.866;4.332;2023-11-21T10:00:15;12.10;99.90
24152;DHT22;12311;50.866;4.332;2023-11-21T10:02:43;12.10;99.90
24152;DHT22;12311;50.866;4.332;2023-11-21T10:05:09;12.10;99.90
24152;DHT22;12311;50.866;4.332;2023-11-21T10:07:38;11.90;99.90
24152;DHT22;12311;50.866;4.332;2023-11-21T10:10:11;11.80;99.90
24152;DHT22;12311;50.866;4.332;2023-11-21T10:12:37;11.70;99.90
24152;DHT22;12311;50.866;4.332;2023-11-21T10:15:08;11.60;99.90
24152;DHT22;12311;50.866;4.332;2023-11-21T10:17:38;11.60;99.90
24152;DHT22;12311;50.866;4.332;2023-11-21T10:20:16;11.60;99.90
24152;DHT22;12311;50.866;4.332;2023-11-21T10:22:42;11.60;99.90
24152;DHT22;12311;50.866;4.332;2023-11-21T10:25:13;11.70;99.90
24152;DHT22;12311;50.866;4.332;2023-11-21T10:27:40;11.80;99.90
24152;DHT22;12311;50.866;4.332;2023-11-21T10:30:10;11.90;99.90
24152;DHT22;12311;50.866;4.332;2023-11-21T10:32:40;12.10;99.90
24152;DHT22;12311;50.866;4.332;2023-11-21T10:35:07;12.30;99.90
24152;DHT22;12311;50.866;4.332;2023-11-21T10:37:39;12.40;99.90
24152;DHT22;12311;50.866;4.332;2023-11-21T10:40:10;12.50;99.90
24152;DHT22;12311;50.866;4.332;2023-11-21T10:42:39;12.50;99.90
24152;DHT22;12311;50.866;4.332;2023-11-21T10:45:06;12.70;99.90
24152;DHT22;12311;50.866;4.332;2023-11-21T10:47:39;12.70;99.90
24152;DHT22;12311;50.866;4.332;2023-11-21T10:50:05;12.90;99.90
24152;DHT22;12311;50.866;4.332;2023-11-21T10:52:31;12.90;99.90
24152;DHT22;12311;50.866;4.332;2023-11-21T10:54:57;12.90;99.90
24152;DHT22;12311;50.866;4.332;2023-11-21T10:57:25;12.90;99.90
24152;DHT22;12311;50.866;4.332;2023-11-21T10:59:54;13.00;99.90
24152;DHT22;12311;50.866;4.332;2023-11-21T11:02:23;13.20;99.90
24152;DHT22;12311;50.866;4.332;2023-11-21T11:04:58;13.40;99.90
24152;DHT22;12311;50.866;4.332;2023-11-21T11:07:27;13.50;99.90
24152;DHT22;12311;50.866;4.332;2023-11-21T11:09:54;13.60;99.90
24152;DHT22;12311;50.866;4.332;2023-11-21T11:12:20;13.60;99.90
24152;DHT22;12311;50.866;4.332;2023-11-21T11:14:48;13.30;99.90
24152;DHT22;12311;50.866;4.332;2023-11-21T11:17:14;13.30;99.90
24152;DHT22;12311;50.866;4.332;2023-11-21T11:19:40;13.20;99.90
24152;DHT22;12311;50.866;4.332;2023-11-21T11:22:24;13.10;99.90
24152;DHT22;12311;50.866;4.332;2023-11-21T11:28:07;13.10;99.90
24152;DHT22;12311;50.866;4.332;2023-11-21T11:36:20;12.80;99.90
24152;DHT22;12311;50.866;4.332;2023-11-21T11:38:47;12.90;99.90
24152;DHT22;12311;50.866;4.332;2023-11-21T11:41:29;12.80;99.90
24152;DHT22;12311;50.866;4.332;2023-11-21T11:43:58;12.80;99.90
24152;DHT22;12311;50.866;4.332;2023-11-21T11:46:42;12.70;99.90
24152;DHT22;12311;50.866;4.332;2023-11-21T11:49:08;12.70;99.90
24152;DHT22;12311;50.866;4.332;2023-11-21T11:51:34;12.80;99.90
24152;DHT22;12311;50.866;4.332;2023-11-21T11:54:01;12.80;99.90
24152;DHT22;12311;50.866;4.332;2023-11-21T11:56:31;12.70;99.90
24152;DHT22;12311;50.866;4.332;2023-11-21T11:59:01;12.70;99.90
24152;DHT22;12311;50.866;4.332;2023-11-21T12:01:29;12.60;99.90
24152;DHT22;12311;50.866;4.332;2023-11-21T12:07:01;12.30;99.90
24152;DHT22;12311;50.866;4.332;2023-11-21T12:09:29;12.20;99.90
24152;DHT22;12311;50.866;4.332;2023-11-21T12:11:56;12.10;99.90
24152;DHT22;12311;50.866;4.332;2023-11-21T12:14:22;12.10;99.90
24152;DHT22;12311;50.866;4.332;2023-11-21T12:16:49;12.10;99.90
24152;DHT22;12311;50.866;4.332;2023-11-21T12:19:14;12.00;99.90
24152;DHT22;12311;50.866;4.332;2023-11-21T12:21:40;12.10;99.90
24152;DHT22;12311;50.866;4.332;2023-11-21T12:24:07;12.10;99.90
24152;DHT22;12311;50.866;4.332;2023-11-21T12:26:34;12.00;99.90
24152;DHT22;12311;50.866;4.332;2023-11-21T12:29:02;12.10;99.90
24152;DHT22;12311;50.866;4.332;2023-11-21T12:31:30;12.00;99.90
24152;DHT22;12311;50.866;4.332;2023-11-21T12:33:56;12.00;99.90
24152;DHT22;12311;50.866;4.332;2023-11-21T12:36:23;12.10;99.90
24152;DHT22;12311;50.866;4.332;2023-11-21T12:38:49;12.10;99.90
24152;DHT22;12311;50.866;4.332;2023-11-21T12:41:16;12.10;99.90
24152;DHT22;12311;50.866;4.332;2023-11-21T12:43:46;12.10;99.90
24152;DHT22;12311;50.866;4.332;2023-11-21T12:46:14;12.20;99.90
24152;DHT22;12311;50.866;4.332;2023-11-21T12:48:44;12.30;99.90
24152;DHT22;12311;50.866;4.332;2023-11-21T12:51:11;12.40;99.90
24152;DHT22;12311;50.866;4.332;2023-11-21T12:53:38;12.30;99.90
24152;DHT22;12311;50.866;4.332;2023-11-21T12:56:22;12.40;99.90
24152;DHT22;12311;50.866;4.332;2023-11-21T12:58:53;12.30;99.90
24152;DHT22;12311;50.866;4.332;2023-11-21T13:01:19;12.30;99.90
24152;DHT22;12311;50.866;4.332;2023-11-21T13:03:47;12.30;99.90
24152;DHT22;12311;50.866;4.332;2023-11-21T13:06:17;12.10;99.90
24152;DHT22;12311;50.866;4.332;2023-11-21T13:08:45;12.20;99.90
24152;DHT22;12311;50.866;4.332;2023-11-21T13:11:11;12.10;99.90
24152;DHT22;12311;50.866;4.332;2023-11-21T13:13:41;12.30;99.90
24152;DHT22;12311;50.866;4.332;2023-11-21T13:16:10;12.30;99.90
24152;DHT22;12311;50.866;4.332;2023-11-21T13:18:37;12.20;99.90
24152;DHT22;12311;50.866;4.332;2023-11-21T13:21:08;12.30;99.90
24152;DHT22;12311;50.866;4.332;2023-11-21T13:23:38;12.30;99.90
24152;DHT22;12311;50.866;4.332;2023-11-21T13:26:06;12.30;99.90
24152;DHT22;12311;50.866;4.332;2023-11-21T13:28:33;12.30;99.90
24152;DHT22;12311;50.866;4.332;2023-11-21T13:30:59;12.20;99.90
24152;DHT22;12311;50.866;4.332;2023-11-21T13:33:29;12.20;99.90
24152;DHT22;12311;50.866;4.332;2023-11-21T13:35:55;12.10;99.90
24152;DHT22;12311;50.866;4.332;2023-11-21T13:38:22;12.10;99.90
24152;DHT22;12311;50.866;4.332;2023-11-21T13:40:55;12.10;99.90
24152;DHT22;12311;50.866;4.332;2023-11-21T13:43:23;12.20;99.90
24152;DHT22;12311;50.866;4.332;2023-11-21T13:45:51;12.20;99.90
24152;DHT22;12311;50.866;4.332;2023-11-21T13:48:25;12.10;99.90
24152;DHT22;12311;50.866;4.332;2023-11-21T13:50:57;12.10;99.90
24152;DHT22;12311;50.866;4.332;2023-11-21T13:53:34;12.00;99.90
24152;DHT22;12311;50.866;4.332;2023-11-21T13:56:03;11.80;99.90
24152;DHT22;12311;50.866;4.332;2023-11-21T13:58:29;11.80;99.90
24152;DHT22;12311;50.866;4.332;2023-11-21T14:01:10;11.80;99.90
24152;DHT22;12311;50.866;4.332;2023-11-21T14:04:01;11.90;99.90
24152;DHT22;12311;50.866;4.332;2023-11-21T14:06:43;11.80;99.90
24152;DHT22;12311;50.866;4.332;2023-11-21T14:09:16;11.80;99.90
24152;DHT22;12311;50.866;4.332;2023-11-21T14:11:55;11.60;99.90
24152;DHT22;12311;50.866;4.332;2023-11-21T14:14:27;11.60;99.90
24152;DHT22;12311;50.866;4.332;2023-11-21T14:16:56;11.50;99.90
24152;DHT22;12311;50.866;4.332;2023-11-21T14:19:22;11.50;99.90
24152;DHT22;12311;50.866;4.332;2023-11-21T14:21:52;11.50;99.90
24152;DHT22;12311;50.866;4.332;2023-11-21T14:24:18;11.60;99.90
24152;DHT22;12311;50.866;4.332;2023-11-21T14:26:45;11.70;99.90
24152;DHT22;12311;50.866;4.332;2023-11-21T14:29:12;11.70;99.90
24152;DHT22;12311;50.866;4.332;2023-11-21T14:31:40;11.80;99.90
24152;DHT22;12311;50.866;4.332;2023-11-21T14:34:07;11.80;99.90
24152;DHT22;12311;50.866;4.332;2023-11-21T14:36:34;11.80;99.90
24152;DHT22;12311;50.866;4.332;2023-11-21T14:39:00;11.80;99.90
24152;DHT22;12311;50.866;4.332;2023-11-21T14:41:25;11.80;99.90
24152;DHT22;12311;50.866;4.332;2023-11-21T14:43:53;11.80;99.90
24152;DHT22;12311;50.866;4.332;2023-11-21T14:46:19;11.70;99.90
24152;DHT22;12311;50.866;4.332;2023-11-21T14:48:45;11.60;99.90
24152;DHT22;12311;50.866;4.332;2023-11-21T14:51:28;11.60;99.90
24152;DHT22;12311;50.866;4.332;2023-11-21T14:53:57;11.60;99.90
24152;DHT22;12311;50.866;4.332;2023-11-21T14:56:32;11.50;99.90
24152;DHT22;12311;50.866;4.332;2023-11-21T14:59:01;11.60;99.90
24152;DHT22;12311;50.866;4.332;2023-11-21T15:01:38;11.50;99.90
24152;DHT22;12311;50.866;4.332;2023-11-21T15:04:21;11.60;99.90
24152;DHT22;12311;50.866;4.332;2023-11-21T15:07:02;11.50;99.90
24152;DHT22;12311;50.866;4.332;2023-11-21T15:09:29;11.40;99.90
24152;DHT22;12311;50.866;4.332;2023-11-21T15:11:58;11.40;99.90
24152;DHT22;12311;50.866;4.332;2023-11-21T15:14:32;11.30;99.90
24152;DHT22;12311;50.866;4.332;2023-11-21T15:16:59;11.40;99.90
24152;DHT22;12311;50.866;4.332;2023-11-21T15:19:26;11.40;99.90
24152;DHT22;12311;50.866;4.332;2023-11-21T15:21:53;11.30;99.90
24152;DHT22;12311;50.866;4.332;2023-11-21T15:24:19;11.40;99.90
24152;DHT22;12311;50.866;4.332;2023-11-21T15:26:45;11.30;99.90
24152;DHT22;12311;50.866;4.332;2023-11-21T15:29:11;11.40;99.90
24152;DHT22;12311;50.866;4.332;2023-11-21T15:31:37;11.40;99.90
24152;DHT22;12311;50.866;4.332;2023-11-21T15:34:04;11.50;99.90
24152;DHT22;12311;50.866;4.332;2023-11-21T15:36:31;11.40;99.90
24152;DHT22;12311;50.866;4.332;2023-11-21T15:38:57;11.30;99.90
24152;DHT22;12311;50.866;4.332;2023-11-21T15:41:23;11.30;99.90
24152;DHT22;12311;50.866;4.332;2023-11-21T15:43:49;11.30;99.90
24152;DHT22;12311;50.866;4.332;2023-11-21T15:46:16;11.30;99.90